Time;durP1;ratioP1;P1;durP2;ratioP2;P2;SDS_P1;SDS_P2;PMS_P1;PMS_P2;Temp;Humidity;BMP_temperature;BMP_pressure;BME280_temperature;BME280_humidity;BME280_pressure;Samples;Min_cycle;Max_cycle;Signal;HPM_P1;HPM_P2
2022/11/23 00:01:42;;;;;;;120.60;54.50;;;;;;;-0.75;72.06;98045.19;103395;1298;99297;-66
2022/11/23 00:04:16;;;;;;;115.30;49.10;;;;;;;-0.73;72.27;98044.23;103264;1292;99654;-67
2022/11/23 00:06:45;;;;;;;106.00;49.90;;;;;;;-0.70;72.33;98043.79;103455;1292;112280;-65
2022/11/23 00:09:13;;;;;;;119.30;50.60;;;;;;;-0.68;72.33;98041.92;103456;1298;99311;-67
2022/11/23 00:11:40;;;;;;;104.50;48.40;;;;;;;-0.67;72.37;98046.79;103450;1298;107781;-66
2022/11/23 00:14:13;;;;;;;99.40;49.30;;;;;;;-0.65;72.43;98044.23;103466;1299;99294;-67
2022/11/23 00:16:41;;;;;;;92.40;46.90;;;;;;;-0.61;72.48;98043.72;103461;1297;96899;-67
2022/11/23 00:19:09;;;;;;;110.50;45.40;;;;;;;-0.58;72.25;98043.60;103491;1299;112842;-69
2022/11/23 00:21:39;;;;;;;115.10;45.90;;;;;;;-0.61;72.19;98041.09;103468;1291;96950;-69
2022/11/23 00:24:15;;;;;;;88.60;43.50;;;;;;;-0.61;72.46;98039.91;103439;1292;108203;-66
2022/11/23 00:26:42;;;;;;;107.30;44.60;;;;;;;-0.59;72.44;98037.54;103434;1291;99224;-67
2022/11/23 00:29:10;;;;;;;87.60;42.00;;;;;;;-0.58;72.53;98036.97;103417;1285;99221;-68
2022/11/23 00:31:38;;;;;;;123.20;42.50;;;;;;;-0.62;72.50;98034.34;103433;1299;113189;-68
2022/11/23 00:34:06;;;;;;;83.30;40.70;;;;;;;-0.65;72.55;98033.11;103441;1297;96874;-67
2022/11/23 00:36:34;;;;;;;80.20;41.40;;;;;;;-0.66;72.54;98035.92;103342;1299;108132;-66
2022/11/23 00:39:06;;;;;;;95.40;39.20;;;;;;;-0.66;72.62;98034.54;103400;1302;99382;-67
2022/11/23 00:41:34;;;;;;;81.40;38.40;;;;;;;-0.63;72.76;98035.82;103494;1292;96472;-68
2022/11/23 00:44:03;;;;;;;92.70;37.10;;;;;;;-0.65;72.54;98032.77;103471;1291;113108;-67
2022/11/23 00:46:30;;;;;;;78.70;35.80;;;;;;;-0.70;72.56;98027.59;103257;1294;99752;-66
2022/11/23 00:49:01;;;;;;;73.80;38.00;;;;;;;-0.74;72.62;98026.17;103329;1294;108384;-66
2022/11/23 00:51:36;;;;;;;72.60;37.10;;;;;;;-0.74;72.75;98028.45;103441;1299;99361;-66
2022/11/23 00:54:09;;;;;;;;;;;;;;;-0.72;72.64;98033.77;103526;1292;99217;-66
2022/11/23 00:56:37;;;;;;;80.70;32.60;;;;;;;-0.74;72.84;98029.52;103441;1298;112353;-66
2022/11/23 00:59:09;;;;;;;86.50;31.90;;;;;;;-0.75;72.86;98029.51;103441;1291;96607;-67
2022/11/23 01:01:37;;;;;;;68.90;34.20;;;;;;;-0.75;72.76;98025.53;103417;1291;108132;-66
2022/11/23 01:04:09;;;;;;;68.80;34.00;;;;;;;-0.76;72.77;98028.67;103435;1292;99239;-68
2022/11/23 01:06:43;;;;;;;75.10;32.30;;;;;;;-0.74;72.81;98031.08;103444;1299;99285;-67
2022/11/23 01:09:17;;;;;;;75.90;30.50;;;;;;;-0.72;72.90;98032.74;103470;1288;112872;-66
2022/11/23 01:11:45;;;;;;;68.90;31.30;;;;;;;-0.74;72.74;98034.72;103184;1297;99873;-66
2022/11/23 01:14:16;;;;;;;74.90;33.60;;;;;;;-0.75;73.01;98036.52;103378;1298;108122;-66
2022/11/23 01:16:48;;;;;;;54.20;25.50;;;;;;;-0.80;72.90;98033.21;103478;1299;99233;-67
2022/11/23 01:19:20;;;;;;;81.20;29.40;;;;;;;-0.81;73.00;98027.02;103475;1291;98298;-67
2022/11/23 01:21:50;;;;;;;71.80;31.20;;;;;;;-0.85;72.78;98026.31;103421;1297;113114;-66
2022/11/23 01:24:23;;;;;;;86.60;32.80;;;;;;;-0.85;72.94;98019.54;103468;1291;99216;-68
2022/11/23 01:26:55;;;;;;;71.10;31.60;;;;;;;-0.83;73.02;98025.73;103530;1281;108142;-67
2022/11/23 01:29:29;;;;;;;68.00;26.80;;;;;;;-0.81;73.03;98030.16;103569;1299;99314;-66
2022/11/23 01:31:57;;;;;;;77.80;32.70;;;;;;;-0.80;73.05;98030.80;103591;1298;99113;-66
2022/11/23 01:34:25;;;;;;;83.50;34.20;;;;;;;-0.80;73.19;98034.45;103624;1291;113234;-67
2022/11/23 01:36:53;;;;;;;94.90;32.60;;;;;;;-0.79;73.28;98034.23;103566;1295;99048;-65
2022/11/23 01:39:21;;;;;;;64.90;31.60;;;;;;;-0.79;73.20;98030.92;103385;1299;110308;-67
2022/11/23 01:41:48;;;;;;;69.50;29.60;;;;;;;-0.80;73.25;98031.11;103456;1291;99230;-67
2022/11/23 01:44:29;;;;;;;66.00;31.50;;;;;;;-0.82;73.20;98030.33;103436;1299;99197;-68
2022/11/23 01:47:06;;;;;;;67.50;33.60;;;;;;;-0.78;73.24;98031.03;103481;1291;112562;-67
2022/11/23 01:49:50;;;;;;;62.60;30.50;;;;;;;-0.74;73.37;98036.80;103486;1291;100791;-67
2022/11/23 01:52:24;;;;;;;73.30;31.60;;;;;;;-0.70;73.54;98033.15;103459;1291;107989;-67
2022/11/23 01:55:01;;;;;;;60.90;31.00;;;;;;;-0.68;73.39;98033.77;103483;1296;99211;-70
2022/11/23 01:57:45;;;;;;;62.10;28.50;;;;;;;-0.65;73.38;98022.85;103452;1298;97609;-68
2022/11/23 02:00:16;;;;;;;67.40;29.50;;;;;;;-0.64;73.57;98026.79;103416;1291;112920;-68
2022/11/23 02:03:03;;;;;;;63.30;26.70;;;;;;;-0.63;73.52;98022.75;103449;1297;99316;-70
2022/11/23 02:05:43;;;;;;;59.20;29.50;;;;;;;-0.60;73.52;98021.21;103395;1299;108045;-68
2022/11/23 02:08:17;;;;;;;66.90;30.30;;;;;;;-0.57;73.51;98020.20;103253;1301;99299;-67
2022/11/23 02:10:49;;;;;;;63.80;29.00;;;;;;;-0.53;73.55;98023.18;103280;1302;99303;-68
2022/11/23 02:13:23;;;;;;;68.80;28.50;;;;;;;-0.51;73.53;98027.98;103423;1299;112864;-66
2022/11/23 02:15:57;;;;;;;62.80;28.30;;;;;;;-0.49;73.62;98020.23;103454;1291;99280;-66
2022/11/23 02:18:33;;;;;;;61.40;26.70;;;;;;;-0.48;73.53;98022.42;103244;1299;107568;-67
2022/11/23 02:21:06;;;;;;;59.30;27.00;;;;;;;-0.47;73.61;98020.64;103250;1298;99273;-67
2022/11/23 02:24:04;;;;;;;60.30;26.10;;;;;;;-0.45;73.63;98020.58;103433;1291;96639;-67
2022/11/23 02:26:38;;;;;;;51.80;25.40;;;;;;;-0.45;73.62;98015.86;103265;1294;112283;-67
2022/11/23 02:29:18;;;;;;;52.30;24.80;;;;;;;-0.45;73.66;98016.55;103414;1291;99253;-67
2022/11/23 02:31:46;;;;;;;48.80;24.30;;;;;;;-0.43;73.77;98013.19;103322;1301;107426;-67
2022/11/23 02:34:20;;;;;;;58.60;23.30;;;;;;;-0.42;73.74;98011.60;103267;1293;99285;-67
2022/11/23 02:36:55;;;;;;;47.90;23.80;;;;;;;-0.48;73.83;98011.30;103276;1295;99331;-67
2022/11/23 02:39:49;;;;;;;48.60;23.60;;;;;;;-0.49;73.77;98011.16;103510;1297;112168;-66
2022/11/23 02:42:21;;;;;;;;;;;;;;;-0.48;73.88;98009.20;103489;1298;99305;-69
2022/11/23 02:45:01;;;;;;;55.30;21.40;;;;;;;-0.48;73.93;98011.48;103450;1291;108085;-67
2022/11/23 02:47:29;;;;;;;50.00;22.50;;;;;;;-0.47;73.84;98009.69;103410;1299;99331;-66
2022/11/23 02:50:02;;;;;;;67.30;23.20;;;;;;;-0.45;73.96;98010.48;103242;1298;99194;-66
2022/11/23 02:52:32;;;;;;;56.50;22.50;;;;;;;-0.48;73.88;98004.66;103426;1297;113144;-67
2022/11/23 02:54:59;;;;;;;50.70;22.60;;;;;;;-0.49;73.97;98002.27;103262;1300;99203;-66
2022/11/23 02:57:27;;;;;;;56.40;25.30;;;;;;;-0.48;74.01;98001.88;103401;1298;108076;-67
2022/11/23 02:59:55;;;;;;;51.50;23.40;;;;;;;-0.47;74.09;98002.35;103383;1291;99211;-67
2022/11/23 03:02:23;;;;;;;44.60;20.60;;;;;;;-0.45;74.22;97999.84;103514;1292;99233;-66
2022/11/23 03:04:54;;;;;;;58.60;23.40;;;;;;;-0.47;74.24;97999.39;103481;1298;113416;-67
2022/11/23 03:07:23;;;;;;;51.00;22.10;;;;;;;-0.48;74.17;97996.31;103430;1299;99328;-67
2022/11/23 03:09:55;;;;;;;48.00;22.90;;;;;;;-0.46;74.16;97994.66;103488;1291;106052;-67
2022/11/23 03:12:23;;;;;;;51.80;24.10;;;;;;;-0.44;74.17;97996.83;103405;1299;99312;-68
2022/11/23 03:14:54;;;;;;;55.00;23.00;;;;;;;-0.41;74.11;97990.76;103454;1292;99241;-67
2022/11/23 03:17:21;;;;;;;51.80;24.90;;;;;;;-0.38;74.23;97989.94;103417;1297;113809;-67
2022/11/23 03:19:49;;;;;;;52.60;25.20;;;;;;;-0.35;74.20;97983.55;103279;1294;99309;-66
2022/11/23 03:22:17;;;;;;;57.80;26.30;;;;;;;-0.32;74.16;97980.28;103393;1291;108092;-66
2022/11/23 03:24:45;;;;;;;67.30;25.60;;;;;;;-0.30;74.28;97980.02;103327;1294;99305;-66
2022/11/23 03:27:18;;;;;;;54.40;24.90;;;;;;;-0.30;74.20;97979.66;103590;1291;98493;-66
2022/11/23 03:29:50;;;;;;;67.00;27.30;;;;;;;-0.30;74.28;97985.77;103535;1297;112551;-66
2022/11/23 03:32:18;;;;;;;63.00;26.40;;;;;;;-0.29;74.37;97987.44;103406;1297;99151;-67
2022/11/23 03:34:46;;;;;;;54.80;25.90;;;;;;;-0.27;74.36;97978.65;103236;1298;108075;-67
2022/11/23 03:37:14;;;;;;;57.60;26.00;;;;;;;-0.25;74.31;97981.01;103431;1297;99315;-67
2022/11/23 03:39:42;;;;;;;54.40;26.90;;;;;;;-0.24;74.37;97980.09;103442;1299;99283;-66
2022/11/23 03:42:14;;;;;;;54.20;26.80;;;;;;;-0.24;74.40;97973.80;103271;1293;113108;-66
2022/11/23 03:44:42;;;;;;;54.80;25.60;;;;;;;-0.24;74.34;97974.17;103425;1296;99248;-66
2022/11/23 03:47:10;;;;;;;62.60;26.30;;;;;;;-0.22;74.47;97972.50;103371;1293;107789;-66
2022/11/23 03:49:41;;;;;;;58.70;24.80;;;;;;;-0.22;74.32;97970.59;103476;1297;99413;-67
2022/11/23 03:52:12;;;;;;;54.30;24.40;;;;;;;-0.23;74.34;97975.66;103519;1282;99296;-67
2022/11/23 03:54:40;;;;;;;50.50;24.30;;;;;;;-0.24;74.42;97979.06;103486;1299;112761;-67
2022/11/23 03:57:08;;;;;;;50.50;25.70;;;;;;;-0.25;74.54;97988.13;103496;1299;99232;-67
2022/11/23 03:59:36;;;;;;;48.90;24.90;;;;;;;-0.24;74.46;97987.08;103567;1292;108435;-67
2022/11/23 04:02:06;;;;;;;48.60;24.30;;;;;;;-0.24;74.63;97986.21;103475;1299;99348;-67
2022/11/23 04:04:39;;;;;;;48.60;23.20;;;;;;;-0.26;74.51;97985.23;103570;1291;99250;-67
2022/11/23 04:07:06;;;;;;;47.70;23.70;;;;;;;-0.26;74.59;97988.38;103446;1295;113126;-67
2022/11/23 04:09:39;;;;;;;53.20;26.00;;;;;;;-0.26;74.56;97986.63;103356;1290;99382;-67
2022/11/23 04:12:10;;;;;;;58.40;29.80;;;;;;;-0.24;74.67;97986.70;103412;1288;108259;-68
2022/11/23 04:14:38;;;;;;;58.70;27.80;;;;;;;-0.21;74.53;97989.20;103441;1299;99318;-67
2022/11/23 04:17:06;;;;;;;65.80;32.10;;;;;;;-0.21;74.63;97992.30;103459;1297;96548;-66
2022/11/23 04:19:34;;;;;;;54.70;28.10;;;;;;;-0.25;74.47;97998.08;103467;1297;113010;-66
2022/11/23 04:22:06;;;;;;;57.30;26.60;;;;;;;-0.26;74.61;98010.19;103448;1291;96549;-67
2022/11/23 04:24:35;;;;;;;57.70;29.40;;;;;;;-0.26;74.53;98013.10;103348;1293;106757;-67
2022/11/23 04:27:03;;;;;;;60.40;28.10;;;;;;;-0.24;74.51;98011.30;103495;1297;99929;-68
2022/11/23 04:29:31;;;;;;;55.20;26.60;;;;;;;-0.24;74.64;97999.26;103484;1305;99187;-68
2022/11/23 04:32:04;;;;;;;58.10;28.30;;;;;;;-0.25;74.63;97997.92;103514;1297;113029;-70
2022/11/23 04:34:32;;;;;;;54.60;27.40;;;;;;;-0.27;74.66;97999.93;103523;1292;97784;-68
2022/11/23 04:37:04;;;;;;;53.70;25.40;;;;;;;-0.29;74.69;98004.16;103482;1291;107982;-68
2022/11/23 04:39:38;;;;;;;51.60;24.50;;;;;;;-0.29;74.67;98006.29;103355;1298;99416;-69
2022/11/23 04:42:06;;;;;;;61.80;27.10;;;;;;;-0.28;74.65;98009.05;103399;1291;99321;-68
2022/11/23 04:44:33;;;;;;;50.60;23.80;;;;;;;-0.30;74.67;98012.08;103292;1295;153521;-67
2022/11/23 04:47:01;;;;;;;55.90;23.60;;;;;;;-0.32;74.76;98017.21;103423;1291;99233;-68
2022/11/23 04:49:31;;;;;;;56.80;25.60;;;;;;;-0.33;74.82;98018.11;103334;1295;108146;-68
2022/11/23 04:52:09;;;;;;;44.00;20.70;;;;;;;-0.33;74.78;98016.00;103309;1295;99253;-68
2022/11/23 04:54:37;;;;;;;51.20;26.10;;;;;;;-0.32;74.87;98016.86;103251;1301;99485;-67
2022/11/23 04:57:04;;;;;;;51.50;24.60;;;;;;;-0.29;74.84;98020.04;103263;1299;112314;-67
2022/11/23 04:59:32;;;;;;;52.10;23.70;;;;;;;-0.28;74.81;98017.38;103426;1291;97783;-68
2022/11/23 05:02:02;;;;;;;54.20;25.20;;;;;;;-0.29;74.88;98017.45;103384;1295;108160;-67
2022/11/23 05:04:30;;;;;;;55.70;25.90;;;;;;;-0.30;74.89;98014.17;103431;1298;99301;-68
2022/11/23 05:07:01;;;;;;;50.30;24.20;;;;;;;-0.31;74.78;98012.95;103343;1298;99212;-68
2022/11/23 05:09:29;;;;;;;51.00;23.90;;;;;;;-0.31;74.89;98005.63;103343;1297;112881;-68
2022/11/23 05:11:59;;;;;;;64.50;26.30;;;;;;;-0.31;74.83;98004.09;103376;1291;96549;-68
2022/11/23 05:14:27;;;;;;;54.60;26.20;;;;;;;-0.35;74.66;97997.31;103349;1283;108052;-68
2022/11/23 05:16:55;;;;;;;53.80;23.70;;;;;;;-0.39;74.87;97996.41;103365;1299;99711;-68
2022/11/23 05:19:23;;;;;;;53.70;25.10;;;;;;;-0.39;74.86;98003.40;103396;1292;99551;-68
2022/11/23 05:21:51;;;;;;;75.20;24.70;;;;;;;-0.41;74.91;97996.86;103407;1297;112367;-67
2022/11/23 05:24:23;;;;;;;55.70;23.10;;;;;;;-0.41;74.93;97997.22;103341;1293;97016;-68
2022/11/23 05:26:51;;;;;;;50.00;24.10;;;;;;;-0.41;75.04;97995.69;103373;1292;108277;-68
2022/11/23 05:29:23;;;;;;;55.80;25.80;;;;;;;-0.41;75.01;97990.45;103499;1299;99315;-67
2022/11/23 05:31:51;;;;;;;55.80;25.20;;;;;;;-0.41;74.98;97990.27;103461;1299;99976;-67
2022/11/23 05:34:19;;;;;;;52.80;24.00;;;;;;;-0.41;75.04;97987.31;103428;1297;112777;-68
2022/11/23 05:36:47;;;;;;;59.40;25.70;;;;;;;-0.42;74.99;97985.97;103506;1291;99234;-68
2022/11/23 05:39:15;;;;;;;50.70;22.80;;;;;;;-0.46;74.93;97990.30;103485;1291;108106;-70
2022/11/23 05:41:46;;;;;;;51.60;23.40;;;;;;;-0.50;75.00;97996.40;103485;1291;99195;-69
2022/11/23 05:44:14;;;;;;;49.20;22.90;;;;;;;-0.53;75.11;98004.20;103445;1291;99236;-70
2022/11/23 05:46:41;;;;;;;53.90;26.50;;;;;;;-0.52;75.12;98004.69;103494;1298;113136;-71
2022/11/23 05:49:09;;;;;;;48.10;23.40;;;;;;;-0.50;75.04;98004.77;103467;1292;100382;-69
2022/11/23 05:51:37;;;;;;;52.60;24.30;;;;;;;-0.50;75.22;97996.06;103435;1299;107471;-67
2022/11/23 05:54:05;;;;;;;50.70;23.20;;;;;;;-0.54;75.06;97993.61;103359;1298;99280;-67
2022/11/23 05:56:34;;;;;;;51.90;22.10;;;;;;;-0.53;75.19;97988.17;103368;1299;99298;-68
2022/11/23 05:59:13;;;;;;;47.40;22.40;;;;;;;-0.53;75.18;97983.48;103378;1297;113111;-68
2022/11/23 06:01:41;;;;;;;47.00;21.40;;;;;;;-0.55;75.26;97979.55;103366;1294;99283;-67
2022/11/23 06:04:13;;;;;;;44.30;20.80;;;;;;;-0.56;75.18;97991.10;103381;1299;108226;-68
2022/11/23 06:06:47;;;;;;;42.40;19.80;;;;;;;-0.56;75.31;98004.84;103491;1298;99272;-70
2022/11/23 06:09:17;;;;;;;41.10;18.80;;;;;;;-0.55;75.20;98009.33;103491;1291;99560;-71
2022/11/23 06:11:50;;;;;;;38.90;18.00;;;;;;;-0.55;75.37;98012.14;103525;1292;112523;-68
2022/11/23 06:14:22;;;;;;;41.00;17.50;;;;;;;-0.55;75.16;98004.45;103383;1301;99288;-71
2022/11/23 06:16:50;;;;;;;37.70;17.40;;;;;;;-0.54;75.18;97995.00;103527;1291;107420;-69
2022/11/23 06:19:18;;;;;;;44.50;19.30;;;;;;;-0.54;75.33;97998.83;103423;1293;99203;-68
2022/11/23 06:21:46;;;;;;;38.70;17.40;;;;;;;-0.54;75.29;98001.63;103355;1299;99324;-68
2022/11/23 06:24:17;;;;;;;43.70;19.40;;;;;;;-0.55;75.32;98014.04;103345;1291;113143;-67
2022/11/23 06:26:45;;;;;;;42.30;18.80;;;;;;;-0.53;75.29;98026.66;103422;1299;98330;-69
2022/11/23 06:29:20;;;;;;;42.10;18.40;;;;;;;-0.51;75.38;98032.17;103402;1292;108526;-69
2022/11/23 06:31:49;;;;;;;40.70;18.70;;;;;;;-0.49;75.38;98031.36;103407;1298;99236;-68
2022/11/23 06:34:17;;;;;;;41.30;18.20;;;;;;;-0.47;75.44;98035.27;103376;1299;96829;-68
2022/11/23 06:36:46;;;;;;;42.90;18.80;;;;;;;-0.47;75.45;98041.73;104155;1292;113109;-68
2022/11/23 06:39:16;;;;;;;44.40;18.80;;;;;;;-0.43;75.41;98048.21;103438;1296;99731;-68
2022/11/23 06:41:48;;;;;;;39.90;18.40;;;;;;;-0.41;75.46;98052.26;103428;1299;106416;-68
2022/11/23 06:44:21;;;;;;;36.80;16.80;;;;;;;-0.38;75.40;98050.38;103419;1291;99275;-68
2022/11/23 06:46:53;;;;;;;32.20;16.20;;;;;;;-0.36;75.42;98058.32;103472;1282;99249;-68
2022/11/23 06:49:22;;;;;;;35.90;16.20;;;;;;;-0.35;75.66;98061.41;103566;1298;113078;-69
2022/11/23 06:51:54;;;;;;;37.50;19.00;;;;;;;-0.35;75.40;98058.10;103476;1293;99309;-69
2022/11/23 06:54:22;;;;;;;35.10;16.50;;;;;;;-0.34;75.43;98057.36;103364;1291;108131;-69
2022/11/23 06:56:56;;;;;;;37.20;16.50;;;;;;;-0.32;75.50;98057.80;103419;1292;99206;-69
2022/11/23 06:59:24;;;;;;;35.00;15.70;;;;;;;-0.32;75.46;98051.70;103433;1291;99203;-72
2022/11/23 07:01:52;;;;;;;37.30;16.00;;;;;;;-0.31;75.48;98054.45;103551;1299;112219;-70
2022/11/23 07:04:19;;;;;;;34.30;17.20;;;;;;;-0.30;75.48;98056.66;103441;1297;99324;-71
2022/11/23 07:06:47;;;;;;;37.60;17.20;;;;;;;-0.29;75.53;98053.30;103553;1297;107390;-68
2022/11/23 07:09:15;;;;;;;38.50;18.60;;;;;;;-0.28;75.54;98050.48;103530;1297;99674;-69
2022/11/23 07:11:45;;;;;;;36.70;16.60;;;;;;;-0.26;75.49;98044.83;103524;1291;99225;-68
2022/11/23 07:14:18;;;;;;;45.00;18.10;;;;;;;-0.25;75.58;98036.42;103552;1297;112622;-71
2022/11/23 07:16:46;;;;;;;35.20;16.90;;;;;;;-0.27;75.53;98038.23;103311;1300;99045;-70
2022/11/23 07:19:13;;;;;;;40.00;19.10;;;;;;;-0.26;75.64;98043.25;103609;1291;107175;-68
2022/11/23 07:21:41;;;;;;;40.80;18.40;;;;;;;-0.24;75.63;98035.67;103532;1281;99247;-68
2022/11/23 07:24:09;;;;;;;40.80;18.80;;;;;;;-0.25;75.42;98031.00;103546;1299;99458;-69
2022/11/23 07:26:37;;;;;;;39.90;19.50;;;;;;;-0.25;75.62;98036.23;103535;1295;113119;-68
2022/11/23 07:29:05;;;;;;;41.30;19.80;;;;;;;-0.24;75.60;98043.70;103485;1291;99285;-69
2022/11/23 07:31:33;;;;;;;40.20;19.10;;;;;;;-0.22;75.70;98038.16;103492;1297;108141;-69
2022/11/23 07:34:04;;;;;;;42.30;21.00;;;;;;;-0.20;75.78;98030.24;103476;1299;99356;-70
2022/11/23 07:36:40;;;;;;;41.10;20.00;;;;;;;-0.19;75.73;98023.07;103514;1295;98313;-68
2022/11/23 07:39:10;;;;;;;44.10;21.90;;;;;;;-0.18;75.57;98025.10;103522;1297;112532;-73
2022/11/23 07:41:38;;;;;;;45.20;20.60;;;;;;;-0.19;75.66;98019.38;103579;1298;99225;-69
2022/11/23 07:44:06;;;;;;;44.50;21.50;;;;;;;-0.18;75.84;98015.67;103501;1291;106871;-69
2022/11/23 07:46:37;;;;;;;42.70;20.40;;;;;;;-0.18;75.90;98014.46;103470;1298;99337;-68
2022/11/23 07:49:04;;;;;;;41.40;20.90;;;;;;;-0.20;75.65;98009.52;103549;1299;99296;-68
2022/11/23 07:51:37;;;;;;;41.80;21.00;;;;;;;-0.19;75.70;98012.09;103583;1299;112376;-70
2022/11/23 07:54:05;;;;;;;48.20;22.60;;;;;;;-0.18;75.83;98013.41;103542;1297;99156;-68
2022/11/23 07:56:32;;;;;;;41.70;21.20;;;;;;;-0.17;75.86;98011.79;103452;1297;107384;-68
2022/11/23 07:59:00;;;;;;;44.60;21.20;;;;;;;-0.14;75.67;98010.66;103398;1299;99270;-68
2022/11/23 08:01:30;;;;;;;152.50;80.40;;;;;;;-0.10;75.84;98018.48;103564;1297;99224;-70
2022/11/23 08:04:03;;;;;;;56.80;28.00;;;;;;;-0.05;75.97;98016.35;103560;1297;112412;-70
2022/11/23 08:06:36;;;;;;;42.40;21.70;;;;;;;-0.02;75.98;98025.59;103517;1298;99171;-70
2022/11/23 08:09:04;;;;;;;40.40;21.60;;;;;;;-0.02;75.84;98039.70;103476;1292;108211;-67
2022/11/23 08:11:35;;;;;;;40.80;19.70;;;;;;;0.01;75.87;98043.43;103502;1298;99278;-67
2022/11/23 08:14:03;;;;;;;39.60;20.60;;;;;;;0.03;75.95;98044.72;103518;1291;99684;-69
2022/11/23 08:16:32;;;;;;;40.30;20.10;;;;;;;0.05;75.97;98049.52;103497;1297;113052;-68
2022/11/23 08:19:00;;;;;;;40.60;20.00;;;;;;;0.08;75.93;98054.62;103556;1299;97922;-70
2022/11/23 08:21:28;;;;;;;41.10;20.30;;;;;;;0.11;75.85;98051.32;103485;1299;107548;-69
2022/11/23 08:23:55;;;;;;;42.80;21.90;;;;;;;0.17;75.97;98047.59;103416;1285;96555;-71
2022/11/23 08:26:28;;;;;;;45.20;22.20;;;;;;;0.20;76.02;98036.26;103390;1298;98295;-70
2022/11/23 08:29:00;;;;;;;46.50;24.40;;;;;;;0.20;75.75;98026.70;103400;1299;112736;-68
2022/11/23 08:31:32;;;;;;;50.50;25.00;;;;;;;0.21;75.99;98029.27;103432;1299;97677;-69
2022/11/23 08:34:00;;;;;;;48.70;24.10;;;;;;;0.22;76.01;98022.58;103359;1297;108099;-70
2022/11/23 08:36:33;;;;;;;47.40;25.00;;;;;;;0.21;75.95;98027.14;103407;1297;96551;-69
2022/11/23 08:39:01;;;;;;;48.30;24.00;;;;;;;0.23;75.95;98034.04;103262;1299;96851;-69
2022/11/23 08:41:30;;;;;;;40.30;20.20;;;;;;;0.23;75.99;98035.09;103395;1297;112895;-69
2022/11/23 08:43:58;;;;;;;43.40;21.40;;;;;;;0.22;75.94;98031.48;103426;1295;96478;-69
2022/11/23 08:46:30;;;;;;;40.30;19.50;;;;;;;0.21;75.97;98039.89;103477;1292;108678;-69
2022/11/23 08:48:59;;;;;;;36.90;18.90;;;;;;;0.20;75.91;98048.11;103465;1291;99330;-70
2022/11/23 08:51:36;;;;;;;40.30;18.70;;;;;;;0.17;75.83;98051.77;103448;1298;99242;-69
2022/11/23 08:54:04;;;;;;;37.20;18.90;;;;;;;0.14;75.88;98052.93;103417;1300;113150;-69
2022/11/23 08:56:33;;;;;;;37.90;17.60;;;;;;;0.13;75.93;98046.36;103388;1292;97083;-69
2022/11/23 08:59:00;;;;;;;38.70;19.50;;;;;;;0.12;75.97;98047.80;103352;1301;107404;-69
2022/11/23 09:01:29;;;;;;;39.30;19.50;;;;;;;0.12;76.03;98046.39;103493;1296;99993;-69
2022/11/23 09:04:00;;;;;;;39.40;18.60;;;;;;;0.15;76.06;98044.00;103430;1297;97951;-70
2022/11/23 09:06:35;;;;;;;38.60;18.80;;;;;;;0.15;76.00;98037.39;103300;1300;112100;-68
2022/11/23 09:09:03;;;;;;;37.60;19.40;;;;;;;0.14;75.97;98036.86;103311;1295;97449;-69
2022/11/23 09:11:34;;;;;;;38.10;18.20;;;;;;;0.15;75.92;98028.66;103418;1292;108252;-70
2022/11/23 09:14:05;;;;;;;37.60;18.60;;;;;;;0.15;76.04;98022.92;103460;1299;99317;-69
2022/11/23 09:16:34;;;;;;;38.10;18.90;;;;;;;0.15;76.15;98019.59;103499;1299;99241;-70
2022/11/23 09:19:02;;;;;;;40.50;21.20;;;;;;;0.16;75.93;98016.41;103421;1298;112605;-70
2022/11/23 09:21:34;;;;;;;42.90;22.30;;;;;;;0.18;76.16;98011.80;103422;1298;99156;-71
2022/11/23 09:24:05;;;;;;;42.80;22.20;;;;;;;0.20;76.04;98012.93;103481;1292;108796;-70
2022/11/23 09:26:33;;;;;;;42.70;22.50;;;;;;;0.22;76.01;98013.67;103274;1294;97661;-73
2022/11/23 09:29:04;;;;;;;42.40;21.00;;;;;;;0.24;76.19;98029.61;103487;1292;99318;-71
2022/11/23 09:31:35;;;;;;;39.10;21.60;;;;;;;0.24;76.04;98027.88;103464;1292;113197;-69
2022/11/23 09:34:10;;;;;;;44.60;20.90;;;;;;;0.25;75.95;98030.77;103329;1299;99287;-69
2022/11/23 09:36:39;;;;;;;40.80;20.80;;;;;;;0.27;76.13;98018.86;103453;1295;107338;-70
2022/11/23 09:39:07;;;;;;;37.70;19.90;;;;;;;0.26;76.05;98023.26;103590;1291;99343;-70
2022/11/23 09:42:01;;;;;;;39.70;21.60;;;;;;;0.25;76.00;98021.73;103397;1298;99270;-69
2022/11/23 09:45:15;;;;;;;40.30;20.40;;;;;;;0.24;75.92;98020.23;103544;1291;112554;-69
2022/11/23 09:48:01;;;;;;;37.20;20.10;;;;;;;0.23;76.17;98023.26;103444;1299;99219;-68
2022/11/23 09:50:55;;;;;;;38.50;18.70;;;;;;;0.22;75.99;98031.28;103376;1298;109266;-68
2022/11/23 09:53:32;;;;;;;37.60;19.20;;;;;;;0.21;76.05;98030.29;103396;1291;99255;-68
2022/11/23 09:56:14;;;;;;;41.80;20.00;;;;;;;0.21;76.18;98021.75;103441;1285;99348;-68
2022/11/23 09:58:42;;;;;;;40.60;20.80;;;;;;;0.20;75.91;98016.40;103362;1299;112445;-68
2022/11/23 10:01:16;;;;;;;45.00;23.00;;;;;;;0.22;76.26;98013.17;103497;1299;99934;-70
2022/11/23 10:03:44;;;;;;;38.90;21.60;;;;;;;0.25;76.08;98014.58;103334;1300;108001;-69
2022/11/23 10:06:26;;;;;;;37.00;18.40;;;;;;;0.27;76.25;98010.63;103301;1306;99174;-70
2022/11/23 10:09:18;;;;;;;41.90;22.00;;;;;;;0.27;76.24;98005.24;103276;1297;99297;-69
2022/11/23 10:12:18;;;;;;;39.80;20.10;;;;;;;0.25;76.05;97996.11;103298;1293;113341;-70
2022/11/23 10:15:28;;;;;;;39.80;20.70;;;;;;;0.27;76.19;97987.48;103418;1299;97785;-69
2022/11/23 10:18:36;;;;;;;41.50;20.90;;;;;;;0.27;76.27;97982.95;103243;1299;107663;-69
2022/11/23 10:21:19;;;;;;;42.40;20.90;;;;;;;0.25;76.17;97967.30;103483;1292;99252;-69
2022/11/23 10:24:14;;;;;;;43.30;21.20;;;;;;;0.22;76.16;97961.19;103514;1297;99241;-70
2022/11/23 10:26:49;;;;;;;48.80;22.60;;;;;;;0.20;76.14;97963.91;103416;1294;113008;-70
2022/11/23 10:29:28;;;;;;;44.10;21.10;;;;;;;0.21;76.11;97959.54;103440;1293;96552;-70
2022/11/23 10:31:59;;;;;;;45.00;22.30;;;;;;;0.22;76.13;97956.51;103488;1299;107405;-70
2022/11/23 10:34:48;;;;;;;40.80;22.20;;;;;;;0.21;76.14;97955.14;103540;1292;99923;-73
2022/11/23 10:37:21;;;;;;;41.10;21.60;;;;;;;0.19;76.03;97952.29;103480;1292;99661;-70
2022/11/23 10:39:49;;;;;;;47.80;23.30;;;;;;;0.18;76.29;97954.09;103355;1299;113045;-69
2022/11/23 10:42:30;;;;;;;43.10;22.40;;;;;;;0.18;76.28;97954.76;103508;1296;99221;-73
2022/11/23 10:45:00;;;;;;;44.20;21.80;;;;;;;0.20;76.32;97960.79;103480;1294;106612;-71
2022/11/23 10:47:50;;;;;;;43.20;21.80;;;;;;;0.22;76.36;97962.09;103569;1291;99919;-70
2022/11/23 10:50:43;;;;;;;43.50;21.90;;;;;;;0.19;76.25;97958.41;103446;1295;97148;-70
2022/11/23 10:53:27;;;;;;;42.50;21.40;;;;;;;0.17;76.29;97958.15;103523;1285;112136;-71
2022/11/23 10:56:00;;;;;;;46.00;22.80;;;;;;;0.17;76.31;97963.73;103476;1291;99211;-73
2022/11/23 10:58:42;;;;;;;48.80;23.10;;;;;;;0.18;76.32;97960.19;103452;1291;107345;-72
2022/11/23 11:01:24;;;;;;;44.20;21.90;;;;;;;0.19;76.35;97965.36;103434;1297;96599;-71
2022/11/23 11:04:02;;;;;;;37.70;17.90;;;;;;;0.23;76.33;97964.80;103453;1297;99924;-71
2022/11/23 11:06:34;;;;;;;45.50;22.50;;;;;;;0.26;76.28;97960.48;103440;1292;112452;-72
2022/11/23 11:09:20;;;;;;;44.10;22.60;;;;;;;0.28;76.30;97958.09;103457;1298;99301;-70
2022/11/23 11:11:56;;;;;;;43.80;22.90;;;;;;;0.32;76.53;97957.26;103502;1298;107862;-70
2022/11/23 11:14:23;;;;;;;47.90;25.80;;;;;;;0.33;76.34;97950.23;103347;1291;99277;-69
2022/11/23 11:16:56;;;;;;;48.30;23.60;;;;;;;0.34;76.20;97944.77;103556;1297;99151;-71
2022/11/23 11:19:34;;;;;;;49.70;25.80;;;;;;;0.36;76.40;97945.17;103496;1291;112437;-74
2022/11/23 11:22:23;;;;;;;49.80;25.80;;;;;;;0.39;76.33;97943.30;103270;1299;99293;-71
2022/11/23 11:24:54;;;;;;;48.80;25.50;;;;;;;0.41;76.42;97942.84;103318;1291;107490;-70
2022/11/23 11:27:27;;;;;;;47.90;27.10;;;;;;;0.43;76.58;97942.90;103354;1292;99339;-71
2022/11/23 11:30:06;;;;;;;50.00;24.80;;;;;;;0.45;76.50;97944.05;103307;1292;97582;-68
2022/11/23 11:32:44;;;;;;;47.80;24.70;;;;;;;0.49;76.51;97944.22;103784;1291;112921;-69